sim
Sign-in with your pilot id or email,
or register
Callsign
Passwort

Schedule Details

Flight Number: DLH1831 (4)
Departure: Valencia Airport (LEVC) at 16:40
Arrival: Munich Airport (EDDM) at 19:00
Route: Lufthansa Passenger Schedule. Enter filed route here before submitting Pirep.

Weather Information
Getting current METAR information for LEVC 211800Z 08008KT 9999 FEW025 26/20 Q1015 NOSIG
Getting current METAR information for EDDM 211820Z 10001KT CAVOK 15/13 Q1016 NOSIG

Schedule Frequency

Route Map